Date,TemperatureHighF,TemperatureAvgF,TemperatureLowF,DewpointHighF,DewpointAvgF,DewpointLowF,HumidityHigh,HumidityAvg,HumidityLow,PressureMaxIn,PressureMinIn,WindSpeedMaxMPH,WindSpeedAvgMPH,GustSpeedMaxMPH,PrecipitationSumIn
2013-3-15,56,50,42,34,31,23,70,50,34,29.94,29.77,10,1,0,0.00
2013-3-16,55,45,37,44,37,32,85,75,61,29.91,29.64,6,1,0,0.00
2013-3-17,41,38,34,34,31,28,91,78,67,30.26,29.91,6,1,0,0.00
2013-3-18,38,36,33,36,31,23,97,81,59,30.32,29.87,5,1,0,0.33
2013-3-19,58,46,37,43,34,19,98,71,29,29.90,29.70,12,2,21,0.00
2013-3-20,51,44,33,25,22,19,55,42,32,29.98,29.77,15,3,19,0.00
2013-3-21,42,35,29,28,19,12,77,53,43,29.89,29.74,11,5,19,0.00
2013-3-22,45,36,28,24,20,14,62,53,42,29.99,29.87,13,3,22,0.00
2013-3-23,51,39,25,31,26,19,81,59,42,30.02,29.90,11,2,16,0.00
2013-3-24,42,36,27,33,26,21,94,69,54,29.99,29.66,5,0,0,0.01
2013-3-25,37,34,32,35,16,-100,100,94,91,29.68,29.51,4,0,0,0.58
2013-3-26,48,40,30,37,33,29,98,76,53,29.96,29.69,8,2,13,0.10
2013-3-27,49,43,37,36,32,29,76,64,51,30.09,29.96,11,4,20,0.00
2013-3-28,48,42,34,37,32,28,81,66,50,30.21,30.08,13,3,18,0.00
2013-3-29,54,47,39,36,32,29,69,57,44,30.24,30.13,15,2,16,0.00
2013-3-30,59,46,32,37,32,27,89,60,34,30.22,30.10,7,1,12,0.00
2013-3-31,54,47,38,50,43,30,96,85,65,30.12,29.73,4,0,0,0.03
2013-4-1,66,50,40,50,40,25,99,72,48,29.96,29.70,16,3,24,0.01
2013-4-2,48,41,28,24,21,18,73,46,33,30.15,29.98,27,4,28,0.00
2013-4-3,51,40,26,25,21,17,73,48,33,30.37,30.16,13,3,21,0.00
2013-4-4,51,38,22,36,24,16,86,59,41,30.41,30.10,5,0,0,0.02
2013-4-5,64,49,37,43,36,33,97,68,35,30.08,29.80,10,2,16,0.23
2013-4-26,68,67,62,42,-44,-100,45,36,34,30.42,30.35,4,1,0,0.00
2013-4-27,71,67,41,47,-50,-100,94,38,30,30.41,30.28,7,0,0,0.00
2013-4-28,70,65,43,47,-38,-100,94,42,33,30.28,30.15,6,0,0,0.00
2013-4-29,62,59,56,55,-97,-100,95,73,42,30.15,30.05,0,0,0,0.00
2013-4-30,56,56,55,54,-97,-100,96,96,95,30.27,30.08,1,1,0,0.00
2013-5-1,70,60,44,48,-39,-100,96,68,37,30.41,30.27,6,2,0,0.00
2013-5-2,65,54,41,52,-43,-100,91,79,64,30.43,30.31,5,1,0,0.00
2013-5-3,63,49,43,47,-25,-100,96,85,57,30.38,30.30,6,0,0,0.00
2013-5-4,56,52,43,48,-43,-100,95,82,67,30.33,30.17,4,0,0,0.00
2013-5-5,63,54,45,48,-4,-100,90,71,52,30.25,30.14,9,1,13,0.00
2013-5-6,59,57,53,54,-87,-100,97,82,64,30.17,30.05,5,0,0,0.00
2013-5-7,59,58,58,57,-97,-100,98,98,95,30.06,29.93,3,0,0,0.00
2013-5-8,58,58,58,-100,-100,-100,98,98,98,29.99,29.93,0,0,0,0.00
2013-5-9,71,64,58,60,-93,-100,98,82,66,29.98,29.91,3,0,0,0.00
2013-5-10,71,71,71,-100,-100,-100,66,66,66,30.00,29.86,0,0,0,0.00
2013-5-11,71,71,71,-100,-100,-100,66,66,66,29.90,29.69,0,0,0,0.00
2013-5-12,71,71,71,-100,-100,-100,66,66,66,30.02,29.73,0,0,0,0.00
2013-5-13,71,42,39,36,-28,-100,88,83,66,30.07,30.02,0,0,0,0.00
2013-6-15,39,39,39,-100,-100,-100,88,88,88,30.00,29.97,0,0,0,0.00
2013-6-16,39,39,39,-100,-100,-100,88,88,88,30.01,29.86,0,0,0,0.00
2013-6-17,84,51,39,74,-96,-100,88,84,73,29.94,29.86,0,0,0,0.00
2013-6-18,83,83,83,-100,-100,-100,73,73,73,29.89,29.78,0,0,0,0.00
2013-6-19,83,76,71,63,-96,-100,76,75,73,30.14,29.86,9,5,0,0.00
2013-6-20,80,75,71,61,-83,-100,76,67,50,30.26,30.15,9,5,0,0.00
2013-6-21,82,80,79,-100,-100,-100,57,52,46,30.30,30.22,1,0,0,0.00
2013-6-22,82,82,82,-100,-100,-100,46,46,46,30.24,30.13,0,0,0,0.00
2013-6-23,84,82,79,75,-78,-100,85,58,46,30.18,30.05,0,0,0,0.00
2013-6-24,84,84,84,-100,-100,-100,76,76,76,30.11,29.99,0,0,0,0.00
2013-6-25,84,84,84,-100,-100,-100,76,76,76,30.02,29.88,0,0,0,0.00
2013-6-26,84,84,84,-100,-100,-100,76,76,76,29.90,29.78,0,0,0,0.00
2013-6-27,84,75,70,-100,-100,-100,97,90,76,29.82,29.60,0,0,0,0.00
2013-6-28,87,77,70,75,-89,-100,97,84,64,29.61,29.48,1,0,0,0.00
2013-6-29,87,81,68,71,-93,-100,64,62,57,29.68,29.50,0,0,0,0.00
2013-6-30,87,87,87,-100,-100,-100,58,58,58,29.83,29.68,0,0,0,0.00
2013-7-1,87,87,87,-100,-100,-100,58,58,58,29.98,29.83,0,0,0,0.00
2013-7-2,87,87,87,-100,-100,-100,58,58,58,30.17,29.98,0,0,0,0.00
2013-7-3,87,87,87,-100,-100,-100,58,58,58,30.22,30.16,0,0,0,0.00
2013-7-4,87,80,75,77,-74,-100,97,83,58,30.25,30.16,0,0,0,0.00
2013-7-5,89,80,73,79,56,-100,100,86,69,30.22,30.10,5,0,0,0.00
2013-7-6,92,82,73,80,76,72,100,83,60,30.17,30.05,5,0,0,0.00
2013-7-7,91,80,70,78,73,69,96,82,61,30.09,29.97,4,0,15,0.00
2013-7-8,86,76,69,74,71,68,97,85,61,30.08,30.01,1,0,0,0.00
2013-7-9,85,77,70,76,73,68,96,87,73,30.08,29.98,0,0,0,0.00
2013-7-10,90,79,73,79,75,71,96,87,65,29.99,29.83,2,0,0,0.00
2013-7-11,86,76,72,75,72,71,96,87,63,29.90,29.82,6,0,0,0.00
2013-7-12,73,70,67,72,68,65,96,95,93,29.99,29.85,7,0,0,0.00
2013-7-13,86,76,68,77,72,67,98,89,73,30.25,29.99,2,0,0,0.00
2013-7-14,89,79,71,80,74,70,98,87,68,30.32,30.25,2,0,0,0.00
2013-7-15,94,80,70,80,74,69,97,83,59,30.28,30.16,1,0,0,0.00
2013-7-16,94,83,74,79,74,71,96,77,51,30.20,30.13,3,0,0,0.00
2013-7-17,96,82,71,81,75,70,97,81,53,30.18,30.07,4,0,0,0.00
2013-7-18,98,84,73,82,77,72,97,81,58,30.09,29.97,4,0,0,0.00
2013-7-19,95,85,76,82,78,75,96,81,63,29.98,29.84,0,0,0,0.00
2013-7-20,93,83,76,79,76,72,96,81,57,29.87,29.76,5,0,0,0.00
2013-7-21,91,78,70,78,73,69,96,84,57,29.91,29.85,1,0,0,0.00
2013-7-22,89,79,72,79,75,71,97,86,71,29.90,29.74,2,0,0,0.00
2013-7-23,88,78,71,76,72,69,97,84,63,29.75,29.61,5,0,13,0.00
2013-7-24,84,76,67,71,68,60,96,78,63,29.88,29.65,5,0,0,0.00
2013-7-25,81,70,62,66,60,54,93,72,56,30.00,29.89,7,1,0,0.00
2013-7-26,84,72,62,68,64,60,96,79,51,30.07,30.00,3,0,0,0.00
2013-7-27,84,74,64,74,69,63,97,85,69,30.04,29.91,2,0,0,0.00
2013-7-28,88,76,70,74,71,66,95,84,64,29.95,29.86,4,0,0,0.00
2013-7-29,84,71,62,69,61,57,96,73,43,30.14,29.95,6,0,0,0.00
2013-7-30,83,70,57,66,61,56,96,76,48,30.21,30.12,5,0,0,0.00
2013-7-31,83,72,63,71,67,62,96,84,63,30.13,30.01,1,0,0,0.00
2013-8-1,82,73,68,75,70,66,97,92,76,30.00,29.79,0,0,0,0.00
2013-8-2,85,74,64,71,68,63,97,81,56,29.94,29.82,1,0,0,0.00
2013-8-3,76,70,65,71,67,64,97,91,75,29.95,29.90,0,0,0,0.00
2013-8-4,81,70,59,65,60,55,97,75,46,30.00,29.88,9,1,13,0.00
2013-8-5,79,65,54,64,59,53,96,81,54,30.08,29.99,2,0,0,0.00
2013-8-6,72,68,62,68,65,60,95,92,87,30.06,29.99,0,0,0,0.00
2013-8-7,83,74,68,76,71,67,96,89,77,30.06,29.98,2,0,0,0.00
2013-8-8,86,78,72,77,74,70,95,88,72,30.02,29.96,4,0,0,0.00
2013-8-9,90,80,75,80,76,73,97,89,69,29.95,29.83,3,0,0,0.00
2013-8-10,84,75,68,74,70,65,98,84,55,30.06,29.91,1,0,0,0.00
2013-8-11,82,74,67,74,70,66,97,87,70,30.09,30.00,5,0,0,0.00
2013-8-12,89,76,67,76,71,66,97,86,55,30.01,29.89,3,0,0,0.00
2013-8-13,84,76,70,76,72,68,96,88,68,29.89,29.71,2,0,0,0.00
2013-8-14,75,66,57,69,57,51,97,72,51,30.07,29.79,7,1,15,0.00
2013-8-15,78,64,51,59,55,50,97,75,43,30.17,30.08,2,0,0,0.00
2013-8-16,80,66,53,63,58,51,97,78,49,30.18,30.12,5,0,0,0.00
2013-8-17,80,68,54,66,60,53,97,79,52,30.25,30.18,4,0,0,0.00
2013-8-18,72,68,63,66,64,61,96,89,73,30.20,30.14,4,0,0,0.00
2013-8-19,75,68,60,68,64,59,97,89,78,30.16,30.06,2,0,0,0.00
2013-8-20,86,73,60,75,68,59,98,86,64,30.14,30.07,1,0,0,0.00
2013-8-21,87,77,67,76,72,66,98,86,64,30.17,30.06,4,0,0,0.00
2013-8-22,89,78,70,74,71,68,97,81,56,30.07,29.91,5,0,0,0.00
2013-8-23,77,69,60,72,66,58,97,90,75,30.09,29.91,1,0,0,0.00
2013-8-24,83,69,56,68,61,54,97,79,43,30.32,30.09,5,0,0,0.00
2013-8-25,81,67,55,66,58,54,97,76,45,30.40,30.25,1,0,0,0.00
2013-8-26,88,72,58,68,63,56,94,74,47,30.27,29.99,2,0,0,0.00
2013-8-27,90,79,69,75,11,-100,91,77,57,29.97,29.85,5,0,0,0.00
2013-8-28,82,81,74,77,-93,-100,97,86,77,29.90,29.80,0,0,0,0.00
2013-8-29,84,79,72,74,-10,-100,94,85,64,30.00,29.82,6,0,0,0.00
2013-8-30,86,73,68,75,-18,-100,97,90,69,30.02,29.87,2,0,0,0.00
2013-8-31,88,78,68,78,74,68,100,88,70,29.89,29.77,3,0,0,0.00
2013-9-1,90,79,68,80,70,-100,99,86,62,29.83,29.74,2,0,0,0.00
2013-9-2,89,77,72,77,-11,-100,99,91,64,29.78,29.69,6,0,0,0.08
2013-9-3,84,76,70,73,68,59,98,77,56,29.93,29.70,6,1,13,0.00
2013-9-4,82,69,54,64,59,53,98,74,42,30.06,29.93,5,0,0,0.00
2013-9-5,83,70,57,67,62,56,100,75,55,30.10,29.98,8,1,15,0.00
2013-9-6,76,64,54,58,53,48,92,69,47,30.24,30.11,6,0,0,0.00
2013-9-7,81,65,50,66,59,48,100,81,57,30.13,29.91,4,0,0,0.00
2013-9-8,87,74,61,72,66,60,99,79,57,30.02,29.84,7,1,0,0.00
2013-9-9,78,70,59,70,62,53,93,77,69,30.18,30.04,2,0,0,0.00
2013-9-10,90,78,68,78,73,68,99,86,65,30.16,30.06,1,0,0,0.00
2013-9-11,93,81,71,80,75,71,100,83,57,30.12,29.98,4,0,0,0.00
2013-9-12,90,76,70,78,26,-100,98,88,66,29.98,29.72,4,0,0,0.05
2013-9-13,77,73,62,64,-4,-100,97,74,47,29.90,29.67,6,1,15,0.00
2013-9-14,68,59,50,55,51,47,94,76,55,30.14,29.90,8,1,0,0.00
2013-9-15,75,60,45,62,53,43,99,81,54,30.22,30.08,1,0,0,0.00
2013-9-16,72,63,54,63,59,52,98,87,66,30.21,30.02,12,0,12,0.02
2013-9-17,65,57,47,55,48,44,95,76,53,30.41,30.22,5,0,0,0.00
2013-9-18,71,56,41,55,48,40,97,78,47,30.33,30.18,5,0,0,0.00
2013-9-19,75,60,46,63,55,44,99,84,63,30.19,30.07,4,0,0,0.00
2013-9-20,80,65,54,65,14,-100,97,83,59,30.08,29.95,1,0,0,0.00
2013-9-21,77,67,58,69,-1,-100,98,88,63,29.97,29.67,4,0,0,0.02
2013-9-22,72,68,54,60,0,-100,97,78,55,29.92,29.70,4,0,0,0.00
2013-9-23,66,55,46,53,48,44,98,79,59,30.07,29.92,8,1,12,0.00
2013-9-24,71,56,46,55,6,-100,96,78,45,30.10,29.92,4,0,0,0.00
2013-9-25,72,57,45,61,29,-100,96,82,46,29.97,29.86,4,0,0,0.00
2013-9-26,73,60,51,60,26,-100,97,85,60,30.05,29.91,2,0,0,0.00
2013-9-27,71,60,52,61,-27,-100,98,86,68,30.23,30.06,1,0,0,0.00
2013-9-28,70,61,54,60,9,-100,95,84,65,30.29,30.21,1,0,0,0.00
2013-9-29,72,60,53,62,-8,-100,97,84,62,30.20,30.05,5,0,0,0.00
2013-9-30,72,59,47,60,7,-100,97,84,60,30.08,29.97,2,0,0,0.00
2013-10-1,80,64,52,68,53,-100,100,86,59,30.05,29.95,0,0,0,0.00
2013-10-2,83,69,59,67,16,-100,98,81,51,30.07,29.97,4,0,0,0.00
2013-10-3,81,69,57,72,65,56,99,88,70,30.10,30.02,0,0,0,0.00
2013-10-4,84,71,59,74,34,-100,98,86,65,30.07,29.98,3,0,0,0.00
2013-10-5,86,73,64,73,16,-100,98,86,63,30.07,29.98,1,0,0,0.00
2013-10-6,86,73,62,75,69,62,100,87,62,30.01,29.91,6,0,0,0.00
2013-10-7,75,70,69,74,-8,-100,98,92,88,30.02,29.78,1,0,0,0.13
2013-10-8,69,62,48,55,-3,-100,97,81,60,30.26,30.03,8,0,0,0.00
2013-10-9,60,55,50,55,52,49,97,90,80,30.29,30.19,4,0,0,0.10
2013-10-10,58,55,54,57,-62,-100,99,98,96,30.18,29.96,5,0,0,0.26
2013-10-11,60,59,58,60,-93,-100,100,100,97,29.97,29.90,4,2,0,0.00
2013-10-12,65,61,60,62,-63,-100,100,96,85,30.14,29.97,5,2,0,0.03
2013-10-13,65,61,55,61,-8,-100,97,93,80,30.31,30.14,8,0,0,0.00
2013-10-14,66,59,51,59,55,49,97,89,77,30.32,30.22,4,0,0,0.00
2013-10-15,69,57,46,58,52,45,99,85,50,30.23,30.07,1,0,0,0.01
2013-10-16,70,63,58,66,61,57,98,93,84,30.07,29.92,0,0,0,0.00
2013-10-17,75,66,59,68,63,58,100,93,78,29.90,29.72,4,0,0,0.02
2013-10-18,64,56,46,60,49,45,97,78,57,30.00,29.79,11,1,15,0.01
2013-10-19,64,54,42,59,50,41,99,90,70,29.99,29.78,4,0,0,0.00
2013-10-20,61,52,42,51,42,38,92,71,50,30.09,29.84,12,1,15,0.00
2013-10-21,66,50,37,51,44,36,99,81,51,30.15,29.96,6,0,0,0.00
2013-10-22,64,53,45,55,49,44,99,86,67,29.93,29.80,6,0,0,0.00
2013-10-23,56,49,43,47,43,39,96,79,59,29.87,29.63,5,0,0,0.12
2013-10-24,50,43,34,39,34,30,94,74,51,30.12,29.87,10,1,15,0.00
2013-10-25,53,42,32,39,34,30,95,77,54,30.32,30.13,9,1,14,0.00
2013-10-26,55,42,29,38,33,27,96,72,46,30.30,29.93,5,1,18,0.00
2013-10-27,58,48,37,43,38,34,92,71,53,30.14,29.93,6,0,12,0.00
2013-10-28,62,46,32,49,40,31,98,83,57,30.27,30.14,2,0,0,0.00
2013-10-29,62,47,36,49,42,34,98,84,61,30.36,30.27,1,0,0,0.00
2013-10-30,64,53,44,59,51,43,99,94,84,30.32,30.14,1,0,0,0.14
2013-10-31,69,61,50,63,58,49,100,92,80,30.18,29.80,5,0,0,0.02
2013-11-1,69,67,65,64,62,61,88,86,85,29.77,29.65,3,1,19,0.00
2013-11-2,69,59,47,56,48,41,98,69,50,29.86,29.65,5,1,14,0.02
2013-11-3,55,47,39,44,37,29,93,70,42,30.44,29.86,10,1,20,0.00
2013-11-4,45,38,30,30,27,24,89,67,46,30.62,30.45,4,0,0,0.00
2013-11-5,58,46,32,49,42,29,94,85,71,30.60,30.46,1,0,0,0.00
2013-11-6,68,56,45,56,51,43,98,85,66,30.45,30.07,6,0,0,0.00
2013-11-7,62,54,45,59,49,30,99,84,54,30.06,29.85,8,2,23,0.02
2013-11-8,51,40,31,34,29,26,89,66,45,30.30,30.06,19,2,19,0.00
2013-11-9,52,40,26,36,31,24,96,70,49,30.35,30.03,5,0,0,0.00
2013-11-10,62,48,36,42,34,30,88,61,40,30.20,29.93,9,2,19,0.00
2013-11-11,56,46,32,37,34,28,87,62,46,30.30,30.00,5,0,0,0.00
2013-11-12,52,41,28,40,28,17,75,59,47,30.38,29.96,12,2,19,0.00
2013-11-13,42,33,26,25,22,18,78,65,48,30.46,30.38,12,2,22,0.00
2013-11-14,56,39,25,29,25,20,86,60,30,30.38,30.22,1,0,0,0.00
2013-11-15,60,42,27,42,32,23,91,69,40,30.28,30.18,0,0,0,0.00
2013-11-16,52,49,44,50,47,42,98,95,90,30.32,30.23,0,0,0,0.25
2013-11-17,66,57,50,60,55,50,100,94,82,30.23,29.75,5,0,0,0.01
2013-11-18,68,60,51,64,45,32,98,63,30,29.91,29.67,11,2,19,0.17
2013-11-19,50,44,34,32,30,27,75,58,50,30.35,29.91,12,3,19,0.00
2013-11-20,43,35,28,31,27,24,89,74,59,30.56,30.35,5,0,0,0.00
2013-11-21,49,39,26,42,34,24,95,85,71,30.56,30.39,1,0,0,0.00
2013-11-22,61,54,43,53,-27,-100,92,82,73,30.39,29.99,0,0,0,0.00
2013-11-23,61,51,41,29,-50,-100,76,58,37,30.17,29.99,8,1,14,0.00
2013-11-24,44,34,25,12,-61,-100,53,45,37,30.50,30.17,10,2,25,0.00
2013-11-25,37,30,20,18,-24,-100,70,47,35,30.57,30.35,2,0,0,0.00
2013-11-26,57,37,31,57,32,19,100,82,56,30.34,29.54,6,0,14,1.24
2013-11-27,58,38,30,58,35,19,100,90,63,30.01,29.49,14,4,28,0.79
2013-11-28,36,30,25,23,19,17,84,64,49,30.48,30.02,9,2,20,0.00
2013-11-29,40,31,22,27,23,19,92,72,52,30.72,30.46,9,1,14,0.00
2013-11-30,38,29,20,27,23,17,92,77,59,30.71,30.38,1,0,0,0.00
2013-12-1,48,35,22,36,29,20,93,81,60,30.36,30.02,1,0,0,0.00
2013-12-2,48,42,37,40,37,35,94,84,71,30.01,29.87,0,0,0,0.00
2013-12-3,55,44,35,43,38,33,93,80,61,29.98,29.86,0,0,0,0.00
2013-12-4,55,46,35,50,43,33,100,92,81,30.08,29.98,1,0,0,0.00
2013-12-5,68,59,50,63,57,49,99,93,79,30.07,29.92,2,0,0,0.00
2013-12-6,65,52,38,64,51,37,98,96,93,30.14,29.87,7,2,15,0.51
2013-12-7,42,37,30,36,32,24,97,83,69,30.53,30.11,11,2,15,0.14
2013-12-8,32,29,27,31,26,22,96,87,76,30.57,30.29,4,0,0,0.02
2013-12-9,35,33,32,35,-17,-100,98,97,96,30.27,30.03,1,0,0,0.14
2013-12-10,34,32,26,34,25,-100,98,94,72,30.22,29.98,4,0,0,0.12
2013-12-11,39,30,22,25,22,19,89,73,55,30.41,30.23,2,0,0,0.10
2013-12-12,29,25,20,24,16,12,92,69,52,30.43,30.24,5,1,12,0.00
2013-12-13,41,30,19,25,20,14,84,68,46,30.31,30.21,4,0,0,0.07
2013-12-14,40,35,29,38,31,24,97,88,75,30.32,29.69,6,1,0,0.66
2013-12-15,46,37,29,41,32,24,98,82,64,29.94,29.62,18,3,25,0.00
2013-12-16,36,32,30,28,25,22,86,75,65,30.20,29.93,4,1,12,0.00
2013-12-17,37,34,32,33,30,26,92,84,77,30.17,29.93,4,0,0,0.00
2013-12-18,39,32,25,29,25,21,93,76,57,30.23,29.97,12,2,19,0.01
2013-12-19,58,40,23,36,29,20,93,69,43,30.20,30.06,7,0,0,0.00
2013-12-20,59,51,43,52,39,32,82,64,49,30.11,29.99,4,0,0,0.00
2013-12-21,71,62,54,62,55,47,87,76,66,30.01,29.89,9,1,18,0.00
2013-12-22,71,64,61,66,55,-100,98,92,83,30.00,29.81,7,1,21,0.43
2013-12-23,63,55,39,63,52,31,100,92,70,30.22,29.92,12,2,16,0.60
2013-12-24,40,33,24,31,24,12,88,68,51,30.45,30.18,9,3,30,0.00
2013-12-25,30,24,17,18,14,12,85,69,54,30.57,30.40,3,0,0,0.00
2013-12-26,42,29,20,28,23,17,93,79,57,30.38,30.22,2,0,0,0.00
2013-12-27,47,34,23,29,24,19,88,70,42,30.42,30.31,2,0,0,0.00
2013-12-28,55,40,27,34,29,23,92,66,41,30.32,30.12,4,0,0,0.00
2013-12-29,47,44,40,46,32,-100,98,88,63,30.10,29.51,7,0,12,0.99
2013-12-30,44,37,32,41,32,23,98,83,68,30.18,29.81,11,1,14,0.00
2013-12-31,43,34,27,32,24,19,84,68,53,30.33,30.10,13,2,18,0.00
2014-1-1,42,33,24,33,27,19,93,80,63,30.42,30.14,5,0,0,0.00
2014-1-2,36,32,29,34,31,28,97,95,93,30.13,29.59,1,0,0,0.01